Thursday, September 20, 2018, 6:18 PM EDT
Back to Local

KCQX, Chatham Municipal Airport

Location: Chatham, MA, United States Lat: 41.683
Local Time: 6:18 PM EDT (22:18 GMT) Lon: -70
Time Zone: US/Eastern Elev: 68 ft

Show me the last for .
Show Decoded

2018-09-20 17:52 METAR KCQX 202152Z AUTO 05009KT 10SM OVC043 17/12 A3027 RMK AO2 SLP251 T01720117
                 =
2018-09-20 16:52 METAR KCQX 202052Z AUTO 06008KT 10SM FEW035 OVC043 17/12 A3026 RMK AO2 SLP246
                 60000 T01720122 53005 =
2018-09-20 15:52 METAR KCQX 201952Z AUTO 05008KT 10SM FEW016 BKN035 OVC044 18/13 A3025 RMK AO2
                 SLP243 T01780133 =
2018-09-20 14:52 METAR KCQX 201852Z AUTO 05011KT 10SM FEW016 BKN039 OVC045 18/14 A3024 RMK AO2
                 RAE05 SLP241 P0000 T01830144 =
2018-09-20 14:29 METAR KCQX 201829Z AUTO 06009KT 10SM FEW016 SCT024 OVC035 18/15 A3024 RMK AO2
                 RAE05 P0000 T01780150 =
2018-09-20 14:22 METAR KCQX 201822Z AUTO 05007KT 10SM FEW016 BKN022 OVC035 18/15 A3024 RMK AO2
                 RAE05 P0000 T01780150 =
2018-09-20 13:58 METAR KCQX 201758Z AUTO 05006KT 3SM -RA BR FEW017 SCT022 OVC030 17/15 A3024 RMK
                 AO2 P0000 T01720150 =
2018-09-20 13:50 METAR KCQX 201750Z AUTO 05009KT 2 1/2SM -RA BR FEW019 OVC028 17/15 A3024 RMK AO2
                 RAB00 SLP241 P0002 60007 T01670150 10194 20167 50005 =
2018-09-20 13:49 METAR KCQX 201749Z AUTO 04007KT 2 1/2SM -RA BR FEW019 OVC028 17/15 A3024 RMK AO2
                 RAB00 P0002 =
2018-09-20 13:35 METAR KCQX 201735Z AUTO 05006KT 4SM -RA BR FEW011 SCT023 OVC031 17/16 A3025 RMK
                 AO2 RAB00 P0001 T01670156 =
2018-09-20 13:31 METAR KCQX 201731Z AUTO 05006G16KT 2 1/2SM -RA BR FEW011 BKN026 OVC031 17/15
                 A3024 RMK AO2 RAB00 P0001 T01670150 =
2018-09-20 13:04 METAR KCQX 201704Z AUTO 03006G17KT 5SM -RA BR SCT015 BKN024 OVC041 17/15 A3025
                 RMK AO2 RAB00 P0000 T01720150 =
2018-09-20 12:52 METAR KCQX 201652Z AUTO 04009G16KT 10SM SCT015 BKN033 OVC041 19/14 A3025 RMK AO2
                 RAB24E34 SLP243 P0000 T01940144 =
2018-09-20 12:05 METAR KCQX 201605Z AUTO 05009KT 10SM FEW015 SCT027 19/14 A3024 RMK AO2 T01940144
                 =
2018-09-20 11:52 METAR KCQX 201552Z AUTO 06013KT 10SM SCT015 SCT024 BKN029 19/14 A3023 RMK AO2
                 SLP238 T01940144 =
2018-09-20 10:52 METAR KCQX 201452Z AUTO 06011G17KT 10SM SCT015 SCT027 OVC050 19/15 A3023 RMK AO2
                 SLP237 60005 T01890150 51024 =
2018-09-20 10:36 METAR KCQX 201436Z AUTO 06013KT 10SM SCT015 BKN028 OVC048 18/16 A3023 RMK AO2
                 T01830156 =
2018-09-20 10:20 METAR KCQX 201420Z AUTO 06011KT 10SM SCT015 BKN039 OVC048 18/16 A3022 RMK AO2
                 T01830156 =
2018-09-20 10:09 METAR KCQX 201409Z AUTO 07011KT 10SM BKN013 BKN036 OVC044 18/16 A3022 RMK AO2
                 T01830161 =
2018-09-20 09:59 METAR KCQX 201359Z AUTO 06009KT 10SM SCT017 BKN037 OVC044 18/16 A3022 RMK AO2
                 T01830161 =
2018-09-20 09:52 METAR KCQX 201352Z AUTO 05009KT 10SM FEW014 BKN020 OVC040 18/16 A3021 RMK AO2
                 RAB1254E47 SLP231 P0005 T01780156 =
2018-09-20 09:30 METAR KCQX 201330Z AUTO 06008KT 2 1/2SM RA BR FEW013 BKN028 OVC038 17/16 A3020
                 RMK AO2 RAB1254 P0003 T01720156 =
2018-09-20 08:52 METAR KCQX 201252Z AUTO 06011G15KT 6SM BR FEW008 SCT039 BKN047 18/16 A3019 RMK
                 AO2 RAB19E29 SLP223 P0000 T01780156 =
2018-09-20 08:36 METAR KCQX 201236Z AUTO 05008KT 10SM FEW011 SCT025 BKN047 18/16 A3017 RMK AO2
                 RAB19E29 P0000 T01780161 =
2018-09-20 08:05 METAR KCQX 201205Z AUTO 07009KT 7SM FEW011 BKN029 OVC047 17/16 A3016 RMK AO2
                 T01720156 =
2018-09-20 07:52 METAR KCQX 201152Z AUTO 06009KT 10SM FEW012 SCT029 OVC047 18/16 A3016 RMK AO2
                 RAB14E25 SLP213 P0000 60011 70012 T01780156 10178 20167 53023 =
2018-09-20 07:25 METAR KCQX 201125Z AUTO 06008KT 9SM FEW012 SCT019 OVC038 17/16 A3015 RMK AO2
                 RAB14E25 P0000 T01720156 =
2018-09-20 06:52 METAR KCQX 201052Z AUTO 06007KT 10SM SCT012 BKN025 OVC050 17/16 A3013 RMK AO2
                 SLP204 T01670156 =
2018-09-20 06:41 METAR KCQX 201041Z AUTO 06006KT 10SM FEW011 SCT027 OVC055 17/15 A3013 RMK AO2
                 T01670150 =
2018-09-20 05:52 METAR KCQX 200952Z AUTO 06008KT 10SM SCT012 SCT016 BKN023 17/16 A3011 RMK AO2
                 SLP196 T01720156 =
2018-09-20 05:25 METAR KCQX 200925Z AUTO 05006KT 10SM SCT012 BKN017 BKN027 17/16 A3010 RMK AO2
                 T01720156 =
2018-09-20 05:14 METAR KCQX 200914Z AUTO 05006KT 10SM BKN010 BKN028 OVC034 17/16 A3009 RMK AO2
                 T01720161 =
2018-09-20 04:52 METAR KCQX 200852Z AUTO 05008KT 10SM FEW010 SCT020 OVC027 17/16 A3009 RMK AO2
                 RAE43 SLP190 P0003 60011 T01720156 53007 =
2018-09-20 04:41 METAR KCQX 200841Z AUTO 05008KT 10SM -RA FEW005 SCT014 OVC020 17/16 A3009 RMK
                 AO2 P0003 T01720161 =
2018-09-20 04:18 METAR KCQX 200818Z AUTO 05007KT 3SM -RA BR SCT005 BKN013 OVC020 17/16 A3008 RMK
                 AO2 P0003 T01670161 =
2018-09-20 04:15 METAR KCQX 200815Z AUTO 05007KT 3SM -RA BR BKN004 BKN009 OVC017 17/16 A3008 RMK
                 AO2 P0003 T01670161 =
2018-09-20 04:13 METAR KCQX 200813Z AUTO VRB05KT 2 1/2SM -RA BR SCT004 BKN009 OVC017 17/16 A3008
                 RMK AO2 VIS 2V4 P0003 T01670161 =
2018-09-20 04:05 METAR KCQX 200805Z AUTO 06008KT 2 1/2SM -RA BR BKN004 OVC009 17/16 A3008 RMK AO2
                 P0002 T01670161 =
2018-09-20 03:52 METAR KCQX 200752Z AUTO 04007KT 2SM -RA BR OVC006 17/16 A3007 RMK AO2 RAB0659
                 SLP185 P0008 T01670161 =
2018-09-20 03:43 METAR KCQX 200743Z AUTO 03007KT 2 1/2SM -RA BR OVC006 17/16 A3007 RMK AO2
                 RAB0659 P0006 T01670156 =
2018-09-20 03:26 METAR KCQX 200726Z AUTO VRB06KT 1 3/4SM RA BR OVC007 17/16 A3007 RMK AO2 RAB0659
                 P0004 T01670156 =
2018-09-20 03:19 METAR KCQX 200719Z AUTO 03006KT 2SM -RA BR BKN005 OVC010 17/16 A3007 RMK AO2
                 RAB0659 P0002 T01670156 =
2018-09-20 03:11 METAR KCQX 200711Z AUTO VRB06G16KT 3SM -RA BR OVC008 17/16 A3007 RMK AO2 RAB0659
                 P0001 T01670156 =
2018-09-20 02:52 METAR KCQX 200652Z AUTO VRB05KT 10SM BKN010 OVC015 17/16 A3007 RMK AO2 RAB20E44
                 CIG 007V014 SLP184 P0000 T01670156 =
2018-09-20 01:52 METAR KCQX 200552Z AUTO 02007KT 350V050 10SM BKN010 BKN014 OVC024 17/15 A3007
                 RMK AO2 RAE06B43E52 CIG 009V013 SLP184 P0000 60000 T01670150 10178 20156 51011 =
2018-09-20 00:52 METAR KCQX 200452Z AUTO VRB06KT 8SM -RA BKN010 OVC015 17/15 A3006 RMK AO2
                 RAB0356E05B48 SLP180 P0000 T01670150 401940156 =
2018-09-19 23:52 METAR KCQX 200352Z AUTO VRB06G17KT 10SM BKN012 BKN017 OVC031 17/14 A3005 RMK AO2
                 RAB04E36 SLP178 P0000 T01670144 =
2018-09-19 22:52 METAR KCQX 200252Z AUTO 03009G15KT 10SM SCT016 BKN024 OVC030 17/14 A3004 RMK AO2
                 RAB03E35 SLP172 P0000 60000 T01670139 50001 =
2018-09-19 22:05 METAR KCQX 200205Z AUTO 04009G18KT 9SM -RA SCT012 BKN027 OVC034 16/14 A3004 RMK
                 AO2 RAB03 P0000 T01610139 =
2018-09-19 21:58 METAR KCQX 200158Z AUTO 02008KT 10SM SCT012 SCT017 OVC032 16/14 A3005 RMK AO2
                 T01610139 =
2018-09-19 21:52 METAR KCQX 200152Z AUTO 02007G15KT 340V040 10SM FEW010 BKN013 OVC032 16/14 A3004
                 RMK AO2 RAB20E51 SLP175 P0000 T01610139 =
2018-09-19 21:45 METAR KCQX 200145Z AUTO 04009G19KT 8SM -RA BKN013 BKN021 OVC028 16/14 A3004 RMK
                 AO2 RAB20 P0000 T01560139 =
2018-09-19 20:52 METAR KCQX 200052Z AUTO VRB06KT 10SM SCT018 BKN026 17/13 A3004 RMK AO2 SLP173
                 T01670128 =
2018-09-19 19:52 METAR KCQX 192352Z AUTO 03007G17KT 350V070 10SM OVC019 17/13 A3003 RMK AO2
                 SLP171 T01670128 10194 20167 51026 =
2018-09-19 18:52 METAR KCQX 192252Z AUTO VRB06G18KT 10SM OVC015 17/13 A3002 RMK AO2 SLP166
                 T01670133 =

Support USWX by starting your Amazon purchase here.